sensor_id;sensor_type;location;lat;lon;timestamp;temperature;humidity
2042;DHT22;1026;51.460;7.252;2024-01-07T00:01:10;5.50;99.90
2042;DHT22;1026;51.460;7.252;2024-01-07T00:03:42;5.40;99.90
2042;DHT22;1026;51.460;7.252;2024-01-07T00:06:40;5.40;99.90
2042;DHT22;1026;51.460;7.252;2024-01-07T00:09:34;5.40;99.90
2042;DHT22;1026;51.460;7.252;2024-01-07T00:12:15;5.40;99.90
2042;DHT22;1026;51.460;7.252;2024-01-07T00:14:55;5.40;99.90
2042;DHT22;1026;51.460;7.252;2024-01-07T00:17:29;5.40;99.90
2042;DHT22;1026;51.460;7.252;2024-01-07T00:20:02;5.40;99.90
2042;DHT22;1026;51.460;7.252;2024-01-07T00:22:29;5.40;99.90
2042;DHT22;1026;51.460;7.252;2024-01-07T00:24:56;5.40;99.90
2042;DHT22;1026;51.460;7.252;2024-01-07T00:27:29;5.40;99.90
2042;DHT22;1026;51.460;7.252;2024-01-07T00:30:02;5.40;99.90
2042;DHT22;1026;51.460;7.252;2024-01-07T00:32:29;5.40;99.90
2042;DHT22;1026;51.460;7.252;2024-01-07T00:35:03;5.40;99.90
2042;DHT22;1026;51.460;7.252;2024-01-07T00:37:30;5.40;99.90
2042;DHT22;1026;51.460;7.252;2024-01-07T00:40:05;5.40;99.90
2042;DHT22;1026;51.460;7.252;2024-01-07T00:42:37;5.40;99.90
2042;DHT22;1026;51.460;7.252;2024-01-07T00:45:11;5.40;99.90
2042;DHT22;1026;51.460;7.252;2024-01-07T00:47:38;5.40;99.90
2042;DHT22;1026;51.460;7.252;2024-01-07T00:50:11;5.40;99.90
2042;DHT22;1026;51.460;7.252;2024-01-07T00:52:38;5.40;99.90
2042;DHT22;1026;51.460;7.252;2024-01-07T00:55:05;5.40;99.90
2042;DHT22;1026;51.460;7.252;2024-01-07T00:57:39;5.40;99.90
2042;DHT22;1026;51.460;7.252;2024-01-07T01:00:07;5.40;99.90
2042;DHT22;1026;51.460;7.252;2024-01-07T01:02:41;5.30;99.90
2042;DHT22;1026;51.460;7.252;2024-01-07T01:05:08;5.40;99.90
2042;DHT22;1026;51.460;7.252;2024-01-07T01:07:41;5.40;99.90
2042;DHT22;1026;51.460;7.252;2024-01-07T01:10:08;5.30;99.90
2042;DHT22;1026;51.460;7.252;2024-01-07T01:12:48;5.30;99.90
2042;DHT22;1026;51.460;7.252;2024-01-07T01:15:29;5.30;99.90
2042;DHT22;1026;51.460;7.252;2024-01-07T01:18:03;5.30;99.90
2042;DHT22;1026;51.460;7.252;2024-01-07T01:20:30;5.30;99.90
2042;DHT22;1026;51.460;7.252;2024-01-07T01:22:57;5.30;99.90
2042;DHT22;1026;51.460;7.252;2024-01-07T01:25:31;5.30;99.90
2042;DHT22;1026;51.460;7.252;2024-01-07T01:27:58;5.30;99.90
2042;DHT22;1026;51.460;7.252;2024-01-07T01:30:25;5.30;99.90
2042;DHT22;1026;51.460;7.252;2024-01-07T01:32:59;5.30;99.90
2042;DHT22;1026;51.460;7.252;2024-01-07T01:35:33;5.30;99.90
2042;DHT22;1026;51.460;7.252;2024-01-07T01:38:00;5.30;99.90
2042;DHT22;1026;51.460;7.252;2024-01-07T01:40:27;5.30;99.90
2042;DHT22;1026;51.460;7.252;2024-01-07T01:43:00;5.30;99.90
2042;DHT22;1026;51.460;7.252;2024-01-07T01:45:55;5.30;99.90
2042;DHT22;1026;51.460;7.252;2024-01-07T01:48:23;5.30;99.90
2042;DHT22;1026;51.460;7.252;2024-01-07T01:50:57;5.30;99.90
2042;DHT22;1026;51.460;7.252;2024-01-07T01:53:34;5.30;99.90
2042;DHT22;1026;51.460;7.252;2024-01-07T01:56:20;5.30;99.90
2042;DHT22;1026;51.460;7.252;2024-01-07T01:58:47;5.30;99.90
2042;DHT22;1026;51.460;7.252;2024-01-07T02:01:22;5.30;99.90
2042;DHT22;1026;51.460;7.252;2024-01-07T02:04:04;5.30;99.90
2042;DHT22;1026;51.460;7.252;2024-01-07T02:06:58;5.20;99.90
2042;DHT22;1026;51.460;7.252;2024-01-07T02:09:32;5.20;99.90
2042;DHT22;1026;51.460;7.252;2024-01-07T02:12:06;5.30;99.90
2042;DHT22;1026;51.460;7.252;2024-01-07T02:14:47;5.20;99.90
2042;DHT22;1026;51.460;7.252;2024-01-07T02:17:20;5.20;99.90
2042;DHT22;1026;51.460;7.252;2024-01-07T02:19:47;5.20;99.90
2042;DHT22;1026;51.460;7.252;2024-01-07T02:22:21;5.20;99.90
2042;DHT22;1026;51.460;7.252;2024-01-07T02:24:48;5.20;99.90
2042;DHT22;1026;51.460;7.252;2024-01-07T02:27:22;5.20;99.90
2042;DHT22;1026;51.460;7.252;2024-01-07T02:29:49;5.20;99.90
2042;DHT22;1026;51.460;7.252;2024-01-07T02:32:22;5.20;99.90
2042;DHT22;1026;51.460;7.252;2024-01-07T02:35:05;5.20;99.90
2042;DHT22;1026;51.460;7.252;2024-01-07T02:37:39;5.20;99.90
2042;DHT22;1026;51.460;7.252;2024-01-07T02:40:07;5.20;99.90
2042;DHT22;1026;51.460;7.252;2024-01-07T02:42:34;5.20;99.90
2042;DHT22;1026;51.460;7.252;2024-01-07T02:45:07;5.20;99.90
2042;DHT22;1026;51.460;7.252;2024-01-07T02:47:34;5.20;99.90
2042;DHT22;1026;51.460;7.252;2024-01-07T02:50:08;5.20;99.90
2042;DHT22;1026;51.460;7.252;2024-01-07T02:52:35;5.20;99.90
2042;DHT22;1026;51.460;7.252;2024-01-07T02:55:08;5.20;99.90
2042;DHT22;1026;51.460;7.252;2024-01-07T02:57:42;5.20;99.90
2042;DHT22;1026;51.460;7.252;2024-01-07T03:00:09;5.10;99.90
2042;DHT22;1026;51.460;7.252;2024-01-07T03:02:37;5.10;99.90
2042;DHT22;1026;51.460;7.252;2024-01-07T03:05:10;5.20;99.90
2042;DHT22;1026;51.460;7.252;2024-01-07T03:07:38;5.10;99.90
2042;DHT22;1026;51.460;7.252;2024-01-07T03:10:20;5.10;99.90
2042;DHT22;1026;51.460;7.252;2024-01-07T03:12:54;5.10;99.90
2042;DHT22;1026;51.460;7.252;2024-01-07T03:15:27;5.20;99.90
2042;DHT22;1026;51.460;7.252;2024-01-07T03:18:01;5.10;99.90
2042;DHT22;1026;51.460;7.252;2024-01-07T03:20:28;5.10;99.90
2042;DHT22;1026;51.460;7.252;2024-01-07T03:23:02;5.10;99.90
2042;DHT22;1026;51.460;7.252;2024-01-07T03:25:29;5.10;99.90
2042;DHT22;1026;51.460;7.252;2024-01-07T03:28:02;5.10;99.90
2042;DHT22;1026;51.460;7.252;2024-01-07T03:30:35;5.10;99.90
2042;DHT22;1026;51.460;7.252;2024-01-07T03:33:09;5.10;99.90
2042;DHT22;1026;51.460;7.252;2024-01-07T03:35:42;5.10;99.90
2042;DHT22;1026;51.460;7.252;2024-01-07T03:38:09;5.10;99.90
2042;DHT22;1026;51.460;7.252;2024-01-07T03:40:35;5.10;99.90
2042;DHT22;1026;51.460;7.252;2024-01-07T03:43:09;5.10;99.90
2042;DHT22;1026;51.460;7.252;2024-01-07T03:45:43;5.10;99.90
2042;DHT22;1026;51.460;7.252;2024-01-07T03:48:10;5.10;99.90
2042;DHT22;1026;51.460;7.252;2024-01-07T03:50:43;5.10;99.90
2042;DHT22;1026;51.460;7.252;2024-01-07T03:53:10;5.10;99.90
2042;DHT22;1026;51.460;7.252;2024-01-07T03:55:43;5.10;99.90
2042;DHT22;1026;51.460;7.252;2024-01-07T03:58:10;5.10;99.90
2042;DHT22;1026;51.460;7.252;2024-01-07T04:00:37;5.00;99.90
2042;DHT22;1026;51.460;7.252;2024-01-07T04:03:11;5.00;99.90
2042;DHT22;1026;51.460;7.252;2024-01-07T04:05:38;5.00;99.90
2042;DHT22;1026;51.460;7.252;2024-01-07T04:08:05;5.00;99.90
2042;DHT22;1026;51.460;7.252;2024-01-07T04:11:02;5.00;99.90
2042;DHT22;1026;51.460;7.252;2024-01-07T04:13:42;5.00;99.90
2042;DHT22;1026;51.460;7.252;2024-01-07T04:16:19;5.00;99.90
2042;DHT22;1026;51.460;7.252;2024-01-07T04:18:59;5.00;99.90
2042;DHT22;1026;51.460;7.252;2024-01-07T04:21:26;5.00;99.90
2042;DHT22;1026;51.460;7.252;2024-01-07T04:23:59;5.00;99.90
2042;DHT22;1026;51.460;7.252;2024-01-07T04:26:26;5.00;99.90
2042;DHT22;1026;51.460;7.252;2024-01-07T04:28:59;5.00;99.90
2042;DHT22;1026;51.460;7.252;2024-01-07T04:31:26;5.00;99.90
2042;DHT22;1026;51.460;7.252;2024-01-07T04:34:02;5.00;99.90
2042;DHT22;1026;51.460;7.252;2024-01-07T04:36:39;5.00;99.90
2042;DHT22;1026;51.460;7.252;2024-01-07T04:39:06;5.00;99.90
2042;DHT22;1026;51.460;7.252;2024-01-07T04:41:40;5.00;99.90
2042;DHT22;1026;51.460;7.252;2024-01-07T04:44:09;5.00;99.90
2042;DHT22;1026;51.460;7.252;2024-01-07T04:46:39;5.00;99.90
2042;DHT22;1026;51.460;7.252;2024-01-07T04:49:13;4.90;99.90
2042;DHT22;1026;51.460;7.252;2024-01-07T04:51:40;4.90;99.90
2042;DHT22;1026;51.460;7.252;2024-01-07T04:54:13;4.90;99.90
2042;DHT22;1026;51.460;7.252;2024-01-07T04:56:47;4.90;99.90
2042;DHT22;1026;51.460;7.252;2024-01-07T04:59:14;4.90;99.90
2042;DHT22;1026;51.460;7.252;2024-01-07T05:01:47;4.90;99.90
2042;DHT22;1026;51.460;7.252;2024-01-07T05:04:14;4.90;99.90
2042;DHT22;1026;51.460;7.252;2024-01-07T05:06:59;4.90;99.90
2042;DHT22;1026;51.460;7.252;2024-01-07T05:09:33;4.90;99.90
2042;DHT22;1026;51.460;7.252;2024-01-07T05:12:00;4.90;99.90
2042;DHT22;1026;51.460;7.252;2024-01-07T05:14:41;4.90;99.90
2042;DHT22;1026;51.460;7.252;2024-01-07T05:17:09;4.90;99.90
2042;DHT22;1026;51.460;7.252;2024-01-07T05:19:52;4.90;99.90
2042;DHT22;1026;51.460;7.252;2024-01-07T05:22:19;4.90;99.90
2042;DHT22;1026;51.460;7.252;2024-01-07T05:24:53;4.90;99.90
2042;DHT22;1026;51.460;7.252;2024-01-07T05:27:20;4.90;99.90
2042;DHT22;1026;51.460;7.252;2024-01-07T05:29:47;4.90;99.90
2042;DHT22;1026;51.460;7.252;2024-01-07T05:32:20;4.80;99.90
2042;DHT22;1026;51.460;7.252;2024-01-07T05:34:47;4.90;99.90
2042;DHT22;1026;51.460;7.252;2024-01-07T05:37:14;4.80;99.90
2042;DHT22;1026;51.460;7.252;2024-01-07T05:39:47;4.80;99.90
2042;DHT22;1026;51.460;7.252;2024-01-07T05:42:14;4.80;99.90
2042;DHT22;1026;51.460;7.252;2024-01-07T05:44:47;4.80;99.90
2042;DHT22;1026;51.460;7.252;2024-01-07T05:47:14;4.80;99.90
2042;DHT22;1026;51.460;7.252;2024-01-07T05:49:40;4.80;99.90
2042;DHT22;1026;51.460;7.252;2024-01-07T05:52:14;4.80;99.90
2042;DHT22;1026;51.460;7.252;2024-01-07T05:54:48;4.80;99.90
2042;DHT22;1026;51.460;7.252;2024-01-07T05:57:22;4.80;99.90
2042;DHT22;1026;51.460;7.252;2024-01-07T05:59:56;4.80;99.90
2042;DHT22;1026;51.460;7.252;2024-01-07T06:02:23;4.80;99.90
2042;DHT22;1026;51.460;7.252;2024-01-07T06:05:01;4.80;99.90
2042;DHT22;1026;51.460;7.252;2024-01-07T06:07:55;4.80;99.90
2042;DHT22;1026;51.460;7.252;2024-01-07T06:10:23;4.80;99.90
2042;DHT22;1026;51.460;7.252;2024-01-07T06:12:56;4.80;99.90
2042;DHT22;1026;51.460;7.252;2024-01-07T06:15:35;4.80;99.90
2042;DHT22;1026;51.460;7.252;2024-01-07T06:18:09;4.70;99.90
2042;DHT22;1026;51.460;7.252;2024-01-07T06:21:04;4.70;99.90
2042;DHT22;1026;51.460;7.252;2024-01-07T06:23:37;4.70;99.90
2042;DHT22;1026;51.460;7.252;2024-01-07T06:26:04;4.70;99.90
2042;DHT22;1026;51.460;7.252;2024-01-07T06:28:32;4.70;99.90
2042;DHT22;1026;51.460;7.252;2024-01-07T06:31:06;4.70;99.90
2042;DHT22;1026;51.460;7.252;2024-01-07T06:33:40;4.70;99.90
2042;DHT22;1026;51.460;7.252;2024-01-07T06:36:07;4.70;99.90
2042;DHT22;1026;51.460;7.252;2024-01-07T06:38:41;4.70;99.90
2042;DHT22;1026;51.460;7.252;2024-01-07T06:41:10;4.70;99.90
2042;DHT22;1026;51.460;7.252;2024-01-07T06:43:37;4.70;99.90
2042;DHT22;1026;51.460;7.252;2024-01-07T06:46:15;4.70;99.90
2042;DHT22;1026;51.460;7.252;2024-01-07T06:48:42;4.70;99.90
2042;DHT22;1026;51.460;7.252;2024-01-07T06:51:17;4.70;99.90
2042;DHT22;1026;51.460;7.252;2024-01-07T06:53:44;4.60;99.90
2042;DHT22;1026;51.460;7.252;2024-01-07T06:56:18;4.60;99.90
2042;DHT22;1026;51.460;7.252;2024-01-07T06:58:56;4.70;99.90
2042;DHT22;1026;51.460;7.252;2024-01-07T07:01:30;4.60;99.90
2042;DHT22;1026;51.460;7.252;2024-01-07T07:03:57;4.60;99.90
2042;DHT22;1026;51.460;7.252;2024-01-07T07:06:30;4.60;99.90
2042;DHT22;1026;51.460;7.252;2024-01-07T07:08:57;4.60;99.90
2042;DHT22;1026;51.460;7.252;2024-01-07T07:11:24;4.60;99.90
2042;DHT22;1026;51.460;7.252;2024-01-07T07:13:58;4.60;99.90
2042;DHT22;1026;51.460;7.252;2024-01-07T07:16:39;4.60;99.90
2042;DHT22;1026;51.460;7.252;2024-01-07T07:19:12;4.60;99.90
2042;DHT22;1026;51.460;7.252;2024-01-07T07:21:50;4.60;99.90
2042;DHT22;1026;51.460;7.252;2024-01-07T07:24:17;4.60;99.90
2042;DHT22;1026;51.460;7.252;2024-01-07T07:26:44;4.60;99.90
2042;DHT22;1026;51.460;7.252;2024-01-07T07:29:17;4.60;99.90
2042;DHT22;1026;51.460;7.252;2024-01-07T07:31:51;4.60;99.90
2042;DHT22;1026;51.460;7.252;2024-01-07T07:34:18;4.60;99.90
2042;DHT22;1026;51.460;7.252;2024-01-07T07:36:46;4.60;99.90
2042;DHT22;1026;51.460;7.252;2024-01-07T07:39:19;4.60;99.90
2042;DHT22;1026;51.460;7.252;2024-01-07T07:41:46;4.60;99.90
2042;DHT22;1026;51.460;7.252;2024-01-07T07:44:21;4.60;99.90
2042;DHT22;1026;51.460;7.252;2024-01-07T07:46:48;4.50;99.90
2042;DHT22;1026;51.460;7.252;2024-01-07T07:49:22;4.60;99.90
2042;DHT22;1026;51.460;7.252;2024-01-07T07:51:57;4.50;99.90
2042;DHT22;1026;51.460;7.252;2024-01-07T07:54:31;4.50;99.90
2042;DHT22;1026;51.460;7.252;2024-01-07T07:57:01;4.50;99.90
2042;DHT22;1026;51.460;7.252;2024-01-07T07:59:29;4.50;99.90
2042;DHT22;1026;51.460;7.252;2024-01-07T08:02:02;4.50;99.90
2042;DHT22;1026;51.460;7.252;2024-01-07T08:04:37;4.50;99.90
2042;DHT22;1026;51.460;7.252;2024-01-07T08:07:10;4.50;99.90
2042;DHT22;1026;51.460;7.252;2024-01-07T08:09:37;4.50;99.90
2042;DHT22;1026;51.460;7.252;2024-01-07T08:12:05;4.50;99.90
2042;DHT22;1026;51.460;7.252;2024-01-07T08:14:46;4.50;99.90
2042;DHT22;1026;51.460;7.252;2024-01-07T08:17:26;4.50;99.90
2042;DHT22;1026;51.460;7.252;2024-01-07T08:19:59;4.50;99.90
2042;DHT22;1026;51.460;7.252;2024-01-07T08:22:28;4.50;99.90
2042;DHT22;1026;51.460;7.252;2024-01-07T08:25:01;4.50;99.90
2042;DHT22;1026;51.460;7.252;2024-01-07T08:27:30;4.50;99.90
2042;DHT22;1026;51.460;7.252;2024-01-07T08:30:06;4.50;99.90
2042;DHT22;1026;51.460;7.252;2024-01-07T08:32:34;4.40;99.90
2042;DHT22;1026;51.460;7.252;2024-01-07T08:35:01;4.40;99.90
2042;DHT22;1026;51.460;7.252;2024-01-07T08:37:35;4.40;99.90
2042;DHT22;1026;51.460;7.252;2024-01-07T08:40:02;4.40;99.90
2042;DHT22;1026;51.460;7.252;2024-01-07T08:42:36;4.40;99.90
2042;DHT22;1026;51.460;7.252;2024-01-07T08:45:09;4.40;99.90
2042;DHT22;1026;51.460;7.252;2024-01-07T08:47:42;4.40;99.90
2042;DHT22;1026;51.460;7.252;2024-01-07T08:50:11;4.40;99.90
2042;DHT22;1026;51.460;7.252;2024-01-07T08:52:47;4.40;99.90
2042;DHT22;1026;51.460;7.252;2024-01-07T08:55:14;4.40;99.90
2042;DHT22;1026;51.460;7.252;2024-01-07T08:57:42;4.40;99.90
2042;DHT22;1026;51.460;7.252;2024-01-07T09:00:17;4.40;99.90
2042;DHT22;1026;51.460;7.252;2024-01-07T09:02:44;4.40;99.90
2042;DHT22;1026;51.460;7.252;2024-01-07T09:05:38;4.40;99.90
2042;DHT22;1026;51.460;7.252;2024-01-07T09:08:12;4.40;99.90
2042;DHT22;1026;51.460;7.252;2024-01-07T09:10:41;4.40;99.90
2042;DHT22;1026;51.460;7.252;2024-01-07T09:13:13;4.30;99.90
2042;DHT22;1026;51.460;7.252;2024-01-07T09:15:54;4.30;99.90
2042;DHT22;1026;51.460;7.252;2024-01-07T09:18:21;4.30;99.90
2042;DHT22;1026;51.460;7.252;2024-01-07T09:21:25;4.40;99.90
2042;DHT22;1026;51.460;7.252;2024-01-07T09:23:58;4.30;99.90
2042;DHT22;1026;51.460;7.252;2024-01-07T09:26:53;4.30;99.90
2042;DHT22;1026;51.460;7.252;2024-01-07T09:29:27;4.30;99.90
2042;DHT22;1026;51.460;7.252;2024-01-07T09:32:01;4.30;99.90
2042;DHT22;1026;51.460;7.252;2024-01-07T09:34:28;4.30;99.90
2042;DHT22;1026;51.460;7.252;2024-01-07T09:36:55;4.30;99.90
2042;DHT22;1026;51.460;7.252;2024-01-07T09:39:28;4.30;99.90
2042;DHT22;1026;51.460;7.252;2024-01-07T09:41:56;4.30;99.90
2042;DHT22;1026;51.460;7.252;2024-01-07T09:44:24;4.30;99.90
2042;DHT22;1026;51.460;7.252;2024-01-07T09:46:59;4.30;99.90
2042;DHT22;1026;51.460;7.252;2024-01-07T09:49:26;4.30;99.90
2042;DHT22;1026;51.460;7.252;2024-01-07T09:51:58;4.30;99.90
2042;DHT22;1026;51.460;7.252;2024-01-07T09:54:32;4.30;99.90
2042;DHT22;1026;51.460;7.252;2024-01-07T09:57:04;4.30;99.90
2042;DHT22;1026;51.460;7.252;2024-01-07T09:59:50;4.30;99.90
2042;DHT22;1026;51.460;7.252;2024-01-07T10:02:24;4.30;99.90
2042;DHT22;1026;51.460;7.252;2024-01-07T10:04:51;4.30;99.90
2042;DHT22;1026;51.460;7.252;2024-01-07T10:07:24;4.30;99.90
2042;DHT22;1026;51.460;7.252;2024-01-07T10:10:28;4.20;99.90
2042;DHT22;1026;51.460;7.252;2024-01-07T10:13:01;4.20;99.90
2042;DHT22;1026;51.460;7.252;2024-01-07T10:16:07;4.20;99.90
2042;DHT22;1026;51.460;7.252;2024-01-07T10:18:57;4.30;99.90
2042;DHT22;1026;51.460;7.252;2024-01-07T10:21:24;4.30;99.90
2042;DHT22;1026;51.460;7.252;2024-01-07T10:24:10;4.20;99.90
2042;DHT22;1026;51.460;7.252;2024-01-07T10:26:39;4.20;99.90
2042;DHT22;1026;51.460;7.252;2024-01-07T10:29:12;4.20;99.90
2042;DHT22;1026;51.460;7.252;2024-01-07T10:31:39;4.20;99.90
2042;DHT22;1026;51.460;7.252;2024-01-07T10:34:08;4.20;99.90
2042;DHT22;1026;51.460;7.252;2024-01-07T10:36:51;4.20;99.90
2042;DHT22;1026;51.460;7.252;2024-01-07T10:39:19;4.20;99.90
2042;DHT22;1026;51.460;7.252;2024-01-07T10:41:54;4.20;99.90
2042;DHT22;1026;51.460;7.252;2024-01-07T10:44:29;4.20;99.90
2042;DHT22;1026;51.460;7.252;2024-01-07T10:47:06;4.20;99.90
2042;DHT22;1026;51.460;7.252;2024-01-07T10:49:44;4.20;99.90
2042;DHT22;1026;51.460;7.252;2024-01-07T10:52:22;4.20;99.90
2042;DHT22;1026;51.460;7.252;2024-01-07T10:54:57;4.20;99.90
2042;DHT22;1026;51.460;7.252;2024-01-07T10:57:44;4.20;99.90
2042;DHT22;1026;51.460;7.252;2024-01-07T11:00:18;4.10;99.90
2042;DHT22;1026;51.460;7.252;2024-01-07T11:03:06;4.10;99.90
2042;DHT22;1026;51.460;7.252;2024-01-07T11:09:03;4.10;99.90
2042;DHT22;1026;51.460;7.252;2024-01-07T11:11:38;4.10;99.90
2042;DHT22;1026;51.460;7.252;2024-01-07T11:14:37;4.10;99.90
2042;DHT22;1026;51.460;7.252;2024-01-07T11:17:09;4.10;99.90
2042;DHT22;1026;51.460;7.252;2024-01-07T11:19:51;4.10;99.90
2042;DHT22;1026;51.460;7.252;2024-01-07T11:22:28;4.20;99.90
2042;DHT22;1026;51.460;7.252;2024-01-07T11:25:02;4.10;99.90
2042;DHT22;1026;51.460;7.252;2024-01-07T11:27:35;4.10;99.90
2042;DHT22;1026;51.460;7.252;2024-01-07T11:30:08;4.10;99.90
2042;DHT22;1026;51.460;7.252;2024-01-07T11:32:58;4.10;99.90
2042;DHT22;1026;51.460;7.252;2024-01-07T11:35:58;4.10;99.90
2042;DHT22;1026;51.460;7.252;2024-01-07T11:38:34;4.10;99.90
2042;DHT22;1026;51.460;7.252;2024-01-07T11:41:14;4.10;99.90
2042;DHT22;1026;51.460;7.252;2024-01-07T11:43:55;4.10;99.90
2042;DHT22;1026;51.460;7.252;2024-01-07T11:46:33;4.10;99.90
2042;DHT22;1026;51.460;7.252;2024-01-07T11:49:08;4.10;99.90
2042;DHT22;1026;51.460;7.252;2024-01-07T11:51:43;4.10;99.90
2042;DHT22;1026;51.460;7.252;2024-01-07T11:54:10;4.10;99.90
2042;DHT22;1026;51.460;7.252;2024-01-07T11:56:37;4.10;99.90
2042;DHT22;1026;51.460;7.252;2024-01-07T11:59:11;4.10;99.90
2042;DHT22;1026;51.460;7.252;2024-01-07T12:01:38;4.10;99.90
2042;DHT22;1026;51.460;7.252;2024-01-07T12:04:13;4.10;99.90
2042;DHT22;1026;51.460;7.252;2024-01-07T12:06:40;4.10;99.90
2042;DHT22;1026;51.460;7.252;2024-01-07T12:09:13;4.10;99.90
2042;DHT22;1026;51.460;7.252;2024-01-07T12:11:41;4.00;99.90
2042;DHT22;1026;51.460;7.252;2024-01-07T12:14:11;4.00;99.90
2042;DHT22;1026;51.460;7.252;2024-01-07T12:16:45;4.00;99.90
2042;DHT22;1026;51.460;7.252;2024-01-07T12:19:12;4.00;99.90
2042;DHT22;1026;51.460;7.252;2024-01-07T12:21:47;4.00;99.90
2042;DHT22;1026;51.460;7.252;2024-01-07T12:24:15;4.00;99.90
2042;DHT22;1026;51.460;7.252;2024-01-07T12:26:48;4.00;99.90
2042;DHT22;1026;51.460;7.252;2024-01-07T12:29:15;4.00;99.90
2042;DHT22;1026;51.460;7.252;2024-01-07T12:31:44;4.00;99.90
2042;DHT22;1026;51.460;7.252;2024-01-07T12:34:21;4.00;99.90
2042;DHT22;1026;51.460;7.252;2024-01-07T12:37:13;4.00;99.90
2042;DHT22;1026;51.460;7.252;2024-01-07T12:39:40;4.00;99.90
2042;DHT22;1026;51.460;7.252;2024-01-07T12:42:13;4.00;99.90
2042;DHT22;1026;51.460;7.252;2024-01-07T12:44:41;4.00;99.90
2042;DHT22;1026;51.460;7.252;2024-01-07T12:47:08;4.00;99.90
2042;DHT22;1026;51.460;7.252;2024-01-07T12:49:41;4.00;99.90
2042;DHT22;1026;51.460;7.252;2024-01-07T12:52:09;3.90;99.90
2042;DHT22;1026;51.460;7.252;2024-01-07T12:54:42;3.90;99.90
2042;DHT22;1026;51.460;7.252;2024-01-07T12:57:10;3.90;99.90
2042;DHT22;1026;51.460;7.252;2024-01-07T12:59:47;3.90;99.90
2042;DHT22;1026;51.460;7.252;2024-01-07T13:02:14;3.90;99.90
2042;DHT22;1026;51.460;7.252;2024-01-07T13:04:41;4.00;99.90
2042;DHT22;1026;51.460;7.252;2024-01-07T13:07:15;3.90;99.90
2042;DHT22;1026;51.460;7.252;2024-01-07T13:09:42;3.90;99.90
2042;DHT22;1026;51.460;7.252;2024-01-07T13:12:17;3.90;99.90
2042;DHT22;1026;51.460;7.252;2024-01-07T13:15:06;3.90;99.90
2042;DHT22;1026;51.460;7.252;2024-01-07T13:17:43;3.90;99.90
2042;DHT22;1026;51.460;7.252;2024-01-07T13:20:10;3.90;99.90
2042;DHT22;1026;51.460;7.252;2024-01-07T13:22:38;3.90;99.90
2042;DHT22;1026;51.460;7.252;2024-01-07T13:25:12;3.90;99.90
2042;DHT22;1026;51.460;7.252;2024-01-07T13:27:47;3.90;99.90
2042;DHT22;1026;51.460;7.252;2024-01-07T13:30:14;3.90;99.90
2042;DHT22;1026;51.460;7.252;2024-01-07T13:32:43;3.90;99.90
2042;DHT22;1026;51.460;7.252;2024-01-07T13:35:17;3.90;99.90
2042;DHT22;1026;51.460;7.252;2024-01-07T13:37:52;3.90;99.90
2042;DHT22;1026;51.460;7.252;2024-01-07T13:40:25;3.90;99.90
2042;DHT22;1026;51.460;7.252;2024-01-07T13:42:54;3.90;99.90
2042;DHT22;1026;51.460;7.252;2024-01-07T13:45:20;3.80;99.90
2042;DHT22;1026;51.460;7.252;2024-01-07T13:47:55;3.80;99.90
2042;DHT22;1026;51.460;7.252;2024-01-07T13:50:29;3.90;99.90
2042;DHT22;1026;51.460;7.252;2024-01-07T13:52:57;3.80;99.90
2042;DHT22;1026;51.460;7.252;2024-01-07T13:55:24;3.80;99.90
2042;DHT22;1026;51.460;7.252;2024-01-07T13:57:58;3.80;99.90
2042;DHT22;1026;51.460;7.252;2024-01-07T14:00:26;3.80;99.90
2042;DHT22;1026;51.460;7.252;2024-01-07T14:03:00;3.80;99.90
2042;DHT22;1026;51.460;7.252;2024-01-07T14:05:27;3.80;99.90
2042;DHT22;1026;51.460;7.252;2024-01-07T14:08:01;3.80;99.90
2042;DHT22;1026;51.460;7.252;2024-01-07T14:10:27;3.80;99.90
2042;DHT22;1026;51.460;7.252;2024-01-07T14:13:07;3.80;99.90
2042;DHT22;1026;51.460;7.252;2024-01-07T14:15:42;3.80;99.90
2042;DHT22;1026;51.460;7.252;2024-01-07T14:18:09;3.80;99.90
2042;DHT22;1026;51.460;7.252;2024-01-07T14:20:41;3.80;99.90
2042;DHT22;1026;51.460;7.252;2024-01-07T14:23:15;3.80;99.90
2042;DHT22;1026;51.460;7.252;2024-01-07T14:25:42;3.80;99.90
2042;DHT22;1026;51.460;7.252;2024-01-07T14:28:16;3.80;99.90
2042;DHT22;1026;51.460;7.252;2024-01-07T14:30:44;3.80;99.90
2042;DHT22;1026;51.460;7.252;2024-01-07T14:33:11;3.80;99.90
2042;DHT22;1026;51.460;7.252;2024-01-07T14:35:51;3.80;99.90
2042;DHT22;1026;51.460;7.252;2024-01-07T14:38:18;3.80;99.90
2042;DHT22;1026;51.460;7.252;2024-01-07T14:40:52;3.80;99.90
2042;DHT22;1026;51.460;7.252;2024-01-07T14:43:19;3.80;99.90
2042;DHT22;1026;51.460;7.252;2024-01-07T14:45:52;3.80;99.90
2042;DHT22;1026;51.460;7.252;2024-01-07T14:48:20;3.80;99.90
2042;DHT22;1026;51.460;7.252;2024-01-07T14:50:47;3.80;99.90
2042;DHT22;1026;51.460;7.252;2024-01-07T14:53:20;3.70;99.90
2042;DHT22;1026;51.460;7.252;2024-01-07T14:55:47;3.70;99.90
2042;DHT22;1026;51.460;7.252;2024-01-07T14:58:21;3.70;99.90
2042;DHT22;1026;51.460;7.252;2024-01-07T15:00:56;3.70;99.90
2042;DHT22;1026;51.460;7.252;2024-01-07T15:03:25;3.70;99.90
2042;DHT22;1026;51.460;7.252;2024-01-07T15:05:52;3.70;99.90
2042;DHT22;1026;51.460;7.252;2024-01-07T15:08:26;3.70;99.90
2042;DHT22;1026;51.460;7.252;2024-01-07T15:10:53;3.70;99.90
2042;DHT22;1026;51.460;7.252;2024-01-07T15:13:27;3.70;99.90
2042;DHT22;1026;51.460;7.252;2024-01-07T15:15:54;3.70;99.90
2042;DHT22;1026;51.460;7.252;2024-01-07T15:18:28;3.70;99.90
2042;DHT22;1026;51.460;7.252;2024-01-07T15:20:55;3.70;99.90
2042;DHT22;1026;51.460;7.252;2024-01-07T15:23:22;3.70;99.90
2042;DHT22;1026;51.460;7.252;2024-01-07T15:25:56;3.70;99.90
2042;DHT22;1026;51.460;7.252;2024-01-07T15:28:22;3.70;99.90
2042;DHT22;1026;51.460;7.252;2024-01-07T15:30:56;3.70;99.90
2042;DHT22;1026;51.460;7.252;2024-01-07T15:33:23;3.60;99.90
2042;DHT22;1026;51.460;7.252;2024-01-07T15:35:50;3.60;99.90
2042;DHT22;1026;51.460;7.252;2024-01-07T15:38:24;3.70;99.90
2042;DHT22;1026;51.460;7.252;2024-01-07T15:41:10;3.60;99.90
2042;DHT22;1026;51.460;7.252;2024-01-07T15:43:37;3.60;99.90
2042;DHT22;1026;51.460;7.252;2024-01-07T15:46:11;3.60;99.90
2042;DHT22;1026;51.460;7.252;2024-01-07T15:48:38;3.60;99.90
2042;DHT22;1026;51.460;7.252;2024-01-07T15:51:05;3.70;99.90
2042;DHT22;1026;51.460;7.252;2024-01-07T15:53:40;3.60;99.90
2042;DHT22;1026;51.460;7.252;2024-01-07T15:56:14;3.60;99.90
2042;DHT22;1026;51.460;7.252;2024-01-07T15:58:49;3.60;99.90
2042;DHT22;1026;51.460;7.252;2024-01-07T16:01:16;3.60;99.90
2042;DHT22;1026;51.460;7.252;2024-01-07T16:03:44;3.60;99.90
2042;DHT22;1026;51.460;7.252;2024-01-07T16:06:18;3.60;99.90
2042;DHT22;1026;51.460;7.252;2024-01-07T16:08:45;3.60;99.90
2042;DHT22;1026;51.460;7.252;2024-01-07T16:11:12;3.60;99.90
2042;DHT22;1026;51.460;7.252;2024-01-07T16:13:50;3.60;99.90
2042;DHT22;1026;51.460;7.252;2024-01-07T16:16:18;3.60;99.90
2042;DHT22;1026;51.460;7.252;2024-01-07T16:18:52;3.60;99.90
2042;DHT22;1026;51.460;7.252;2024-01-07T16:21:19;3.60;99.90
2042;DHT22;1026;51.460;7.252;2024-01-07T16:23:55;3.60;99.90
2042;DHT22;1026;51.460;7.252;2024-01-07T16:26:22;3.60;99.90
2042;DHT22;1026;51.460;7.252;2024-01-07T16:28:56;3.60;99.90
2042;DHT22;1026;51.460;7.252;2024-01-07T16:31:23;3.60;99.90
2042;DHT22;1026;51.460;7.252;2024-01-07T16:33:57;3.60;99.90
2042;DHT22;1026;51.460;7.252;2024-01-07T16:36:24;3.50;99.90
2042;DHT22;1026;51.460;7.252;2024-01-07T16:39:11;3.60;99.90
2042;DHT22;1026;51.460;7.252;2024-01-07T16:41:39;3.50;99.90
2042;DHT22;1026;51.460;7.252;2024-01-07T16:44:12;3.50;99.90
2042;DHT22;1026;51.460;7.252;2024-01-07T16:46:46;3.60;99.90
2042;DHT22;1026;51.460;7.252;2024-01-07T16:49:13;3.20;95.40
2042;DHT22;1026;51.460;7.252;2024-01-07T16:51:49;3.30;97.30
2042;DHT22;1026;51.460;7.252;2024-01-07T16:54:23;3.40;98.00
2042;DHT22;1026;51.460;7.252;2024-01-07T16:56:50;3.40;98.40